createdAt,value
2022-10-24T00:00:16.844Z,13.21
2022-10-24T00:02:46.528Z,13.18
2022-10-24T00:05:18.806Z,13.19
2022-10-24T00:07:48.267Z,13.22
2022-10-24T00:10:17.949Z,13.14
2022-10-24T00:12:47.820Z,13.18
2022-10-24T00:15:17.557Z,13.20
2022-10-24T00:17:46.981Z,13.17
2022-10-24T00:20:18.963Z,13.18
2022-10-24T00:22:48.503Z,13.23
2022-10-24T00:25:17.945Z,13.16
2022-10-24T00:27:47.402Z,13.16
2022-10-24T00:30:16.993Z,13.18
2022-10-24T00:32:46.806Z,13.19
2022-10-24T00:35:18.998Z,13.10
2022-10-24T00:37:48.477Z,13.12
2022-10-24T00:40:20.500Z,13.04
2022-10-24T00:42:50.801Z,13.02
2022-10-24T00:45:53.301Z,13.06
2022-10-24T00:48:26.518Z,13.09
2022-10-24T00:51:00.291Z,12.99
2022-10-24T00:53:30.478Z,12.95
2022-10-24T00:56:01.421Z,12.94
2022-10-24T00:58:32.989Z,12.86
2022-10-24T01:01:02.907Z,12.83
2022-10-24T01:03:32.464Z,12.86
2022-10-24T01:06:25.420Z,12.86
2022-10-24T01:08:59.993Z,12.87
2022-10-24T01:11:41.210Z,12.97
2022-10-24T01:14:18.425Z,12.97
2022-10-24T01:16:51.540Z,12.92
2022-10-24T01:19:41.042Z,12.85
2022-10-24T01:22:18.127Z,12.79
2022-10-24T01:25:03.773Z,12.73
2022-10-24T01:27:40.386Z,12.69
2022-10-24T01:30:13.267Z,12.67
2022-10-24T01:32:51.308Z,12.62
2022-10-24T01:35:37.067Z,12.58
2022-10-24T01:38:11.711Z,12.56
2022-10-24T01:40:46.412Z,12.55
2022-10-24T01:43:18.140Z,12.50
2022-10-24T01:45:54.175Z,12.53
2022-10-24T01:48:24.896Z,12.48
2022-10-24T01:50:55.955Z,12.51
2022-10-24T01:53:28.833Z,12.50
2022-10-24T01:55:58.918Z,12.46
2022-10-24T01:58:28.611Z,12.43
2022-10-24T02:01:03.034Z,12.42
2022-10-24T02:03:35.371Z,12.45
2022-10-24T02:06:07.764Z,12.43
2022-10-24T02:08:41.253Z,12.48
2022-10-24T02:11:11.787Z,12.38
2022-10-24T02:13:47.805Z,12.42
2022-10-24T02:16:21.532Z,12.42
2022-10-24T02:18:52.956Z,12.41
2022-10-24T02:21:27.704Z,12.38
2022-10-24T02:24:02.201Z,12.47
2022-10-24T02:26:35.492Z,12.40
2022-10-24T02:29:09.350Z,12.33
2022-10-24T02:31:44.854Z,12.34
2022-10-24T02:34:15.691Z,12.42
2022-10-24T02:36:46.298Z,12.49
2022-10-24T02:39:16.492Z,12.47
2022-10-24T02:41:47.349Z,12.43
2022-10-24T02:44:18.340Z,12.41
2022-10-24T02:46:51.070Z,12.34
2022-10-24T02:49:20.579Z,12.42
2022-10-24T02:51:50.609Z,12.34
2022-10-24T02:54:20.332Z,12.31
2022-10-24T02:56:53.484Z,12.34
2022-10-24T02:59:23.346Z,12.24
2022-10-24T03:01:55.414Z,12.19
2022-10-24T03:04:25.065Z,12.20
2022-10-24T03:06:54.635Z,12.21
2022-10-24T03:09:24.086Z,12.22
2022-10-24T03:11:53.662Z,12.17
2022-10-24T03:14:23.214Z,12.18
2022-10-24T03:16:55.284Z,12.23
2022-10-24T03:19:24.799Z,12.21
2022-10-24T03:21:54.368Z,12.18
2022-10-24T03:24:36.935Z,12.21
2022-10-24T03:27:13.385Z,12.13
2022-10-24T03:29:42.884Z,12.13
2022-10-24T03:32:15.289Z,12.07
2022-10-24T03:34:44.901Z,12.00
2022-10-24T03:37:14.450Z,11.94
2022-10-24T03:39:43.915Z,11.98
2022-10-24T03:42:13.474Z,11.96
2022-10-24T03:44:42.950Z,11.92
2022-10-24T03:47:15.427Z,11.95
2022-10-24T03:49:44.941Z,11.92
2022-10-24T03:52:15.037Z,11.88
2022-10-24T03:54:44.437Z,11.87
2022-10-24T03:57:13.908Z,11.85
2022-10-24T03:59:43.352Z,11.80
2022-10-24T04:02:15.377Z,11.74
2022-10-24T04:04:44.838Z,11.75
2022-10-24T04:07:14.395Z,11.68
2022-10-24T04:09:43.857Z,11.68
2022-10-24T04:12:13.428Z,11.70
2022-10-24T04:14:42.858Z,11.70
2022-10-24T04:17:14.978Z,11.67
2022-10-24T04:19:45.038Z,11.67
2022-10-24T04:22:14.577Z,11.65
2022-10-24T04:24:44.061Z,11.67
2022-10-24T04:27:13.649Z,11.68
2022-10-24T04:29:43.066Z,11.68
2022-10-24T04:32:15.176Z,11.74
2022-10-24T04:34:44.645Z,11.72
2022-10-24T04:37:14.168Z,11.77
2022-10-24T04:39:43.626Z,11.58
2022-10-24T04:42:13.050Z,11.54
2022-10-24T04:44:42.549Z,11.50
2022-10-24T04:47:12.018Z,11.56
2022-10-24T04:49:44.191Z,11.48
2022-10-24T04:52:13.659Z,11.51
2022-10-24T04:54:43.263Z,11.48
2022-10-24T04:57:12.760Z,11.45
2022-10-24T04:59:42.244Z,11.63
2022-10-24T05:02:11.697Z,11.51
2022-10-24T05:04:43.759Z,11.50
2022-10-24T05:07:13.237Z,11.46
2022-10-24T05:09:43.676Z,11.58
2022-10-24T05:12:13.265Z,11.63
2022-10-24T05:14:42.780Z,11.56
2022-10-24T05:17:12.292Z,11.52
2022-10-24T05:19:44.440Z,11.55
2022-10-24T05:22:13.920Z,11.53
2022-10-24T05:24:43.593Z,11.50
2022-10-24T05:27:13.084Z,11.53
2022-10-24T05:29:42.593Z,11.50
2022-10-24T05:32:12.119Z,11.57
2022-10-24T05:34:44.221Z,11.57
2022-10-24T05:37:13.707Z,11.54
2022-10-24T05:39:43.154Z,11.55
2022-10-24T05:42:13.396Z,11.54
2022-10-24T05:44:42.889Z,11.51
2022-10-24T05:47:12.477Z,11.48
2022-10-24T05:49:44.456Z,11.58
2022-10-24T05:52:14.010Z,11.55
2022-10-24T05:54:55.621Z,11.53
2022-10-24T05:57:32.973Z,11.52
2022-10-24T06:00:03.478Z,11.54
2022-10-24T06:02:33.133Z,11.54
2022-10-24T06:05:05.472Z,11.56
2022-10-24T06:07:35.325Z,11.61
2022-10-24T06:10:05.142Z,11.68
2022-10-24T06:12:36.179Z,11.67
2022-10-24T06:15:06.902Z,11.68
2022-10-24T06:17:36.750Z,11.69
2022-10-24T06:20:09.870Z,11.72
2022-10-24T06:22:39.545Z,11.74
2022-10-24T06:25:09.540Z,11.79
2022-10-24T06:27:38.953Z,11.84
2022-10-24T06:30:10.677Z,11.97
2022-10-24T06:32:43.613Z,12.01
2022-10-24T06:35:16.812Z,12.04
2022-10-24T06:37:48.268Z,12.15
2022-10-24T06:40:18.533Z,12.19
2022-10-24T06:42:48.265Z,12.27
2022-10-24T06:45:18.481Z,12.31
2022-10-24T06:47:51.825Z,12.32
2022-10-24T06:50:26.190Z,12.28
2022-10-24T06:52:55.762Z,12.32
2022-10-24T06:55:25.250Z,12.36
2022-10-24T06:57:55.782Z,12.37
2022-10-24T07:00:25.427Z,12.43
2022-10-24T07:02:54.943Z,12.46
2022-10-24T07:05:27.003Z,12.45
2022-10-24T07:07:56.505Z,12.42
2022-10-24T07:10:26.256Z,12.45
2022-10-24T07:12:55.828Z,12.47
2022-10-24T07:15:25.327Z,12.47
2022-10-24T07:17:54.818Z,12.50
2022-10-24T07:20:27.197Z,12.48
2022-10-24T07:22:56.679Z,12.54
2022-10-24T07:25:26.113Z,12.56
2022-10-24T07:27:55.840Z,12.63
2022-10-24T07:30:25.703Z,12.67
2022-10-24T07:32:56.182Z,12.70
2022-10-24T07:35:28.245Z,12.76
2022-10-24T07:37:57.814Z,12.78
2022-10-24T07:40:27.273Z,12.85
2022-10-24T07:42:56.735Z,12.88
2022-10-24T07:45:27.970Z,12.93
2022-10-24T07:47:58.269Z,12.96
2022-10-24T07:50:30.319Z,13.06
2022-10-24T07:52:59.820Z,13.09
2022-10-24T07:55:29.393Z,13.13
2022-10-24T07:57:58.906Z,13.16
2022-10-24T08:00:28.413Z,13.20
2022-10-24T08:02:58.602Z,13.28
2022-10-24T08:05:30.845Z,13.29
2022-10-24T08:08:24.658Z,13.33
2022-10-24T08:10:50.336Z,13.42
2022-10-24T08:13:20.095Z,13.46
2022-10-24T08:15:49.670Z,13.53
2022-10-24T08:18:19.156Z,13.63
2022-10-24T08:20:59.497Z,13.70
2022-10-24T08:23:29.311Z,13.82
2022-10-24T08:25:58.786Z,13.89
2022-10-24T08:28:28.359Z,13.97
2022-10-24T08:30:58.938Z,14.03
2022-10-24T08:33:28.931Z,14.00
2022-10-24T08:36:02.692Z,14.02
2022-10-24T08:38:32.370Z,14.01
2022-10-24T08:41:03.039Z,13.99
2022-10-24T08:43:32.503Z,14.05
2022-10-24T08:46:08.917Z,14.13
2022-10-24T08:48:44.638Z,14.17
2022-10-24T08:51:24.736Z,14.23
2022-10-24T08:53:56.196Z,14.26
2022-10-24T08:56:27.583Z,14.32
2022-10-24T08:58:57.390Z,14.41
2022-10-24T09:01:33.102Z,14.50
2022-10-24T09:04:06.692Z,14.66
2022-10-24T09:06:39.804Z,14.84
2022-10-24T09:09:15.793Z,14.97
2022-10-24T09:11:48.294Z,15.01
2022-10-24T09:14:19.473Z,14.94
2022-10-24T09:16:52.916Z,14.97
2022-10-24T09:19:24.794Z,15.11
2022-10-24T09:21:58.792Z,15.24
2022-10-24T09:24:35.276Z,15.31
2022-10-24T09:27:07.075Z,15.36
2022-10-24T09:29:36.953Z,15.44
2022-10-24T09:32:06.779Z,15.49
2022-10-24T09:34:36.250Z,15.57
2022-10-24T09:37:08.539Z,15.65
2022-10-24T09:39:38.018Z,15.72
2022-10-24T09:42:07.612Z,15.78
2022-10-24T09:44:38.113Z,15.87
2022-10-24T09:47:09.598Z,15.97
2022-10-24T09:49:42.677Z,16.11
2022-10-24T09:52:22.034Z,16.00
2022-10-24T09:55:08.222Z,15.92
2022-10-24T09:57:42.641Z,15.97
2022-10-24T10:00:25.317Z,16.10
2022-10-24T10:03:06.481Z,16.04
2022-10-24T10:05:47.492Z,16.11
2022-10-24T10:08:23.698Z,16.25
2022-10-24T10:11:01.714Z,16.37
2022-10-24T10:13:31.831Z,16.45
2022-10-24T10:16:03.875Z,16.50
2022-10-24T10:18:37.112Z,16.58
2022-10-24T10:21:13.280Z,16.68
2022-10-24T10:23:46.917Z,16.70
2022-10-24T10:26:23.287Z,16.79
2022-10-24T10:29:02.296Z,16.82
2022-10-24T10:31:37.508Z,16.79
2022-10-24T10:34:25.648Z,16.92
2022-10-24T10:37:06.582Z,17.01
2022-10-24T10:39:56.010Z,17.01
2022-10-24T10:42:32.660Z,16.99
2022-10-24T10:45:09.820Z,17.04
2022-10-24T10:47:48.455Z,16.99
2022-10-24T10:50:28.175Z,16.86
2022-10-24T10:53:00.873Z,16.97
2022-10-24T10:55:38.942Z,16.99
2022-10-24T10:58:19.761Z,16.92
2022-10-24T11:00:55.344Z,16.77
2022-10-24T11:03:33.705Z,16.68
2022-10-24T11:06:13.559Z,16.67
2022-10-24T11:09:12.912Z,16.64
2022-10-24T11:11:47.399Z,16.63
2022-10-24T11:14:29.297Z,16.62
2022-10-24T11:17:01.401Z,16.60
2022-10-24T11:19:35.254Z,16.61
2022-10-24T11:22:07.309Z,16.58
2022-10-24T11:24:46.223Z,16.63
2022-10-24T11:27:24.233Z,16.66
2022-10-24T11:29:57.157Z,16.69
2022-10-24T11:32:31.124Z,16.77
2022-10-24T11:35:03.441Z,16.93
2022-10-24T11:37:35.632Z,17.08
2022-10-24T11:40:09.367Z,17.35
2022-10-24T11:42:45.393Z,17.35
2022-10-24T11:45:16.618Z,17.27
2022-10-24T11:48:05.988Z,17.24
2022-10-24T11:50:39.409Z,17.17
2022-10-24T11:53:17.689Z,17.16
2022-10-24T11:55:49.325Z,17.15
2022-10-24T11:58:23.339Z,17.24
2022-10-24T12:01:22.858Z,17.27
2022-10-24T12:04:09.621Z,17.26
2022-10-24T12:06:54.937Z,17.37
2022-10-24T12:09:40.301Z,17.23
2022-10-24T12:12:18.526Z,17.09
2022-10-24T12:15:02.278Z,17.05
2022-10-24T12:18:06.545Z,16.98
2022-10-24T12:20:36.442Z,16.97
2022-10-24T12:23:07.469Z,16.96
2022-10-24T12:25:38.377Z,16.91
2022-10-24T12:28:10.506Z,16.91
2022-10-24T12:30:42.822Z,16.94
2022-10-24T12:33:24.943Z,16.95
2022-10-24T12:35:57.215Z,17.09
2022-10-24T12:39:02.342Z,17.09
2022-10-24T12:41:42.991Z,16.97
2022-10-24T12:44:47.558Z,17.08
2022-10-24T12:47:35.889Z,17.10
2022-10-24T12:50:35.741Z,17.07
2022-10-24T12:53:08.059Z,17.00
2022-10-24T12:56:07.362Z,16.93
2022-10-24T12:58:37.781Z,16.83
2022-10-24T13:01:09.270Z,16.73
2022-10-24T13:03:53.830Z,16.87
2022-10-24T13:06:28.174Z,16.79
2022-10-24T13:09:16.237Z,16.71
2022-10-24T13:11:57.416Z,16.66
2022-10-24T13:14:42.031Z,16.66
2022-10-24T13:17:14.812Z,17.29
2022-10-24T13:19:46.787Z,17.58
2022-10-24T13:22:30.909Z,17.30
2022-10-24T13:25:00.321Z,17.35
2022-10-24T13:27:33.041Z,17.09
2022-10-24T13:30:26.469Z,16.96
2022-10-24T13:33:25.889Z,16.90
2022-10-24T13:35:58.576Z,16.80
2022-10-24T13:38:29.142Z,16.73
2022-10-24T13:40:58.645Z,16.66
2022-10-24T13:43:28.179Z,16.58
2022-10-24T13:46:01.128Z,16.54
2022-10-24T13:48:32.383Z,16.45
2022-10-24T13:51:09.815Z,16.42
2022-10-24T13:53:47.831Z,16.35
2022-10-24T13:56:17.693Z,16.16
2022-10-24T13:58:47.716Z,15.70
2022-10-24T14:01:20.724Z,15.58
2022-10-24T14:03:51.217Z,15.59
2022-10-24T14:06:26.309Z,15.76
2022-10-24T14:09:06.523Z,15.88
2022-10-24T14:11:37.923Z,16.05
2022-10-24T14:14:10.965Z,16.10
2022-10-24T14:16:42.517Z,16.17
2022-10-24T14:19:18.780Z,16.15
2022-10-24T14:21:53.967Z,16.12
2022-10-24T14:24:25.649Z,16.13
2022-10-24T14:26:56.937Z,16.09
2022-10-24T14:29:34.082Z,16.09
2022-10-24T14:32:04.943Z,16.05
2022-10-24T14:34:36.378Z,16.05
2022-10-24T14:37:10.945Z,16.06
2022-10-24T14:39:41.470Z,16.04
2022-10-24T14:42:15.891Z,16.03
2022-10-24T14:44:47.338Z,16.12
2022-10-24T14:47:25.307Z,16.17
2022-10-24T14:49:55.205Z,16.22
2022-10-24T14:52:32.174Z,16.22
2022-10-24T14:55:04.348Z,16.19
2022-10-24T14:57:35.285Z,16.11
2022-10-24T15:00:07.671Z,16.04
2022-10-24T15:02:42.137Z,15.99
2022-10-24T15:05:19.293Z,15.99
2022-10-24T15:08:20.424Z,15.88
2022-10-24T15:10:46.569Z,15.87
2022-10-24T15:13:21.071Z,15.85
2022-10-24T15:15:55.224Z,15.88
2022-10-24T15:18:26.774Z,15.87
2022-10-24T15:21:02.755Z,15.83
2022-10-24T15:23:37.273Z,15.79
2022-10-24T15:26:11.686Z,15.75
2022-10-24T15:28:47.799Z,15.68
2022-10-24T15:31:20.158Z,15.60
2022-10-24T15:33:50.995Z,15.53
2022-10-24T15:36:23.677Z,15.46
2022-10-24T15:39:00.011Z,15.40
2022-10-24T15:41:29.855Z,15.39
2022-10-24T15:44:00.627Z,15.30
2022-10-24T15:46:31.306Z,15.30
2022-10-24T15:49:00.721Z,15.30
2022-10-24T15:51:30.148Z,15.32
2022-10-24T15:54:02.229Z,15.24
2022-10-24T15:56:31.579Z,15.18
2022-10-24T15:59:01.028Z,15.17
2022-10-24T16:01:34.048Z,15.15
2022-10-24T16:04:05.850Z,15.06
2022-10-24T16:06:35.260Z,15.00
2022-10-24T16:09:08.754Z,15.03
2022-10-24T16:11:38.265Z,14.93
2022-10-24T16:14:07.636Z,14.88
2022-10-24T16:16:37.100Z,14.83
2022-10-24T16:19:06.588Z,14.87
2022-10-24T16:21:36.108Z,14.85
2022-10-24T16:24:08.778Z,14.81
2022-10-24T16:26:40.168Z,14.76
2022-10-24T16:29:09.670Z,14.78
2022-10-24T16:31:39.356Z,14.74
2022-10-24T16:34:08.939Z,14.72
2022-10-24T16:36:40.920Z,14.56
2022-10-24T16:39:14.486Z,14.45
2022-10-24T16:41:46.339Z,14.39
2022-10-24T16:44:16.276Z,14.30
2022-10-24T16:46:45.741Z,14.29
2022-10-24T16:49:15.183Z,14.20
2022-10-24T16:51:47.180Z,14.14
2022-10-24T16:54:20.800Z,14.10
2022-10-24T16:56:53.832Z,14.07
2022-10-24T16:59:23.668Z,14.03
2022-10-24T17:01:53.412Z,14.14
2022-10-24T17:04:22.963Z,14.12
2022-10-24T17:06:52.408Z,14.07
2022-10-24T17:09:24.549Z,14.06
2022-10-24T17:11:56.482Z,14.05
2022-10-24T17:14:26.139Z,14.05
2022-10-24T17:16:55.704Z,14.06
2022-10-24T17:19:25.157Z,14.07
2022-10-24T17:21:55.228Z,14.08
2022-10-24T17:24:28.193Z,14.03
2022-10-24T17:26:58.081Z,14.01
2022-10-24T17:29:31.551Z,13.98
2022-10-24T17:32:03.422Z,13.97
2022-10-24T17:34:33.434Z,13.97
2022-10-24T17:37:07.211Z,13.98
2022-10-24T17:39:45.720Z,13.94
2022-10-24T17:42:15.694Z,13.91
2022-10-24T17:44:45.744Z,13.87
2022-10-24T17:47:15.455Z,13.89
2022-10-24T17:49:46.518Z,13.87
2022-10-24T17:52:19.355Z,13.86
2022-10-24T17:54:54.558Z,13.87
2022-10-24T17:57:23.967Z,13.87
2022-10-24T17:59:54.136Z,13.84
2022-10-24T18:02:23.787Z,13.82
2022-10-24T18:04:54.153Z,13.78
2022-10-24T18:07:23.667Z,13.73
2022-10-24T18:10:00.328Z,13.72
2022-10-24T18:12:29.838Z,13.68
2022-10-24T18:14:59.479Z,13.61
2022-10-24T18:17:28.954Z,13.58
2022-10-24T18:19:58.453Z,13.54
2022-10-24T18:22:28.222Z,13.52
2022-10-24T18:25:00.226Z,13.47
2022-10-24T18:27:29.910Z,13.43
2022-10-24T18:29:59.337Z,13.36
2022-10-24T18:32:28.966Z,13.36
2022-10-24T18:34:58.419Z,13.38
2022-10-24T18:37:28.077Z,13.35
2022-10-24T18:40:00.866Z,13.37
2022-10-24T18:42:33.251Z,13.35
2022-10-24T18:45:04.362Z,13.33
2022-10-24T18:47:34.617Z,13.32
2022-10-24T18:50:04.721Z,13.31
2022-10-24T18:52:42.072Z,13.27
2022-10-24T18:55:20.706Z,13.24
2022-10-24T18:57:53.217Z,13.21
2022-10-24T19:00:25.344Z,13.15
2022-10-24T19:03:01.398Z,13.16
2022-10-24T19:05:42.135Z,13.12
2022-10-24T19:08:15.120Z,13.09
2022-10-24T19:10:48.490Z,13.10
2022-10-24T19:13:18.182Z,13.07
2022-10-24T19:15:50.840Z,13.00
2022-10-24T19:18:20.377Z,13.01
2022-10-24T19:20:49.941Z,13.03
2022-10-24T19:23:20.012Z,13.01
2022-10-24T19:25:53.111Z,12.99
2022-10-24T19:28:23.345Z,12.96
2022-10-24T19:30:54.049Z,12.96
2022-10-24T19:33:27.864Z,12.88
2022-10-24T19:35:57.429Z,12.92
2022-10-24T19:38:27.779Z,12.93
2022-10-24T19:40:59.971Z,12.95
2022-10-24T19:43:33.168Z,12.95
2022-10-24T19:46:19.310Z,12.95
2022-10-24T19:48:49.789Z,12.93
2022-10-24T19:51:20.393Z,12.89
2022-10-24T19:53:50.653Z,12.87
2022-10-24T19:56:27.408Z,12.82
2022-10-24T19:58:57.697Z,12.81
2022-10-24T20:01:28.974Z,12.79
2022-10-24T20:03:59.377Z,12.77
2022-10-24T20:06:28.919Z,12.78
2022-10-24T20:08:58.420Z,12.75
2022-10-24T20:11:30.901Z,12.75
2022-10-24T20:14:00.378Z,12.64
2022-10-24T20:16:29.925Z,12.67
2022-10-24T20:18:59.402Z,12.62
2022-10-24T20:21:29.236Z,12.59
2022-10-24T20:23:58.750Z,12.52
2022-10-24T20:26:30.813Z,12.52
2022-10-24T20:29:00.734Z,12.52
2022-10-24T20:31:32.162Z,12.53
2022-10-24T20:34:06.971Z,12.48
2022-10-24T20:36:38.742Z,12.40
2022-10-24T20:39:08.762Z,12.43
2022-10-24T20:41:42.285Z,12.51
2022-10-24T20:44:11.903Z,12.54
2022-10-24T20:46:42.439Z,12.56
2022-10-24T20:49:11.971Z,12.58
2022-10-24T20:51:43.720Z,12.61
2022-10-24T20:54:13.561Z,12.61
2022-10-24T20:56:45.541Z,12.61
2022-10-24T20:59:17.972Z,12.64
2022-10-24T21:01:47.579Z,12.65
2022-10-24T21:04:20.034Z,12.64
2022-10-24T21:06:50.943Z,12.63
2022-10-24T21:09:20.456Z,12.61
2022-10-24T21:11:52.542Z,12.62
2022-10-24T21:14:22.990Z,12.61
2022-10-24T21:16:52.452Z,12.58
2022-10-24T21:19:21.957Z,12.55
2022-10-24T21:21:51.501Z,12.55
2022-10-24T21:24:21.600Z,12.50
2022-10-24T21:26:53.771Z,12.49
2022-10-24T21:29:38.582Z,12.47
2022-10-24T21:32:08.081Z,12.43
2022-10-24T21:34:37.846Z,12.38
2022-10-24T21:37:07.912Z,12.31
2022-10-24T21:39:37.449Z,12.25
2022-10-24T21:42:09.603Z,12.25
2022-10-24T21:44:39.201Z,12.20
2022-10-24T21:47:08.619Z,12.19
2022-10-24T21:49:38.212Z,12.16
2022-10-24T21:52:07.853Z,12.13
2022-10-24T21:54:37.407Z,12.13
2022-10-24T21:57:09.477Z,12.10
2022-10-24T21:59:39.051Z,12.09
2022-10-24T22:02:09.233Z,12.09
2022-10-24T22:04:38.848Z,12.09
2022-10-24T22:07:08.570Z,12.10
2022-10-24T22:09:38.108Z,12.10
2022-10-24T22:12:10.464Z,12.14
2022-10-24T22:14:40.442Z,12.13
2022-10-24T22:17:09.918Z,12.13
2022-10-24T22:19:39.427Z,12.14
2022-10-24T22:22:08.878Z,12.11
2022-10-24T22:24:41.055Z,12.08
2022-10-24T22:27:13.174Z,12.02
2022-10-24T22:29:42.625Z,11.99
2022-10-24T22:32:15.679Z,12.02
2022-10-24T22:34:46.024Z,12.01
2022-10-24T22:37:24.953Z,12.00
2022-10-24T22:39:56.147Z,12.04
2022-10-24T22:42:28.651Z,12.01
2022-10-24T22:44:58.675Z,12.01
2022-10-24T22:47:39.389Z,12.01
2022-10-24T22:50:15.594Z,12.02
2022-10-24T22:52:46.123Z,11.99
2022-10-24T22:55:20.537Z,12.00
2022-10-24T22:57:53.545Z,11.98
2022-10-24T23:00:24.075Z,11.94
2022-10-24T23:02:56.258Z,11.95
2022-10-24T23:05:32.848Z,11.90
2022-10-24T23:08:06.553Z,11.84
2022-10-24T23:10:36.556Z,11.80
2022-10-24T23:13:09.501Z,11.77
2022-10-24T23:15:39.658Z,11.71
2022-10-24T23:18:12.617Z,11.70
2022-10-24T23:20:44.591Z,11.69
2022-10-24T23:23:28.154Z,11.66
2022-10-24T23:26:04.875Z,11.61
2022-10-24T23:28:44.225Z,11.59
2022-10-24T23:31:16.861Z,11.59
2022-10-24T23:33:48.054Z,11.51
2022-10-24T23:36:25.253Z,11.52
2022-10-24T23:38:58.770Z,11.48
2022-10-24T23:41:31.362Z,11.45
2022-10-24T23:44:03.981Z,11.44
2022-10-24T23:46:37.096Z,11.45
2022-10-24T23:49:15.373Z,11.45
2022-10-24T23:51:50.330Z,11.44
2022-10-24T23:54:24.929Z,11.41
2022-10-24T23:56:55.213Z,11.40
2022-10-24T23:59:27.478Z,11.36
